.
WxDataArchive / Data Records for 2006-09-16
2006-09-15 September 2006 2006-09-17

Data Records for Saturday, 16 September 2006

Time	Temp	Chill	HIndex	Humid	Dewpt	 Wind 	HiWind	WindDir	Rain 	Barom 
-----	----	-----	------	-----	-----	------	------	-------	-----	----- 
00:00	58.4	58.4	58.4	89	55.2	0	2	90	0.00	30.101 
00:05	58.3	58.3	58.3	89	55.1	0	0	---	0.00	30.101 
00:10	58.1	58.1	58.1	89	54.9	0	0	---	0.00	30.101 
00:15	57.8	57.8	57.8	89	54.6	0	0	---	0.00	30.100 
00:20	57.5	57.5	57.5	89	54.3	0	0	---	0.00	30.100 
00:25	57.2	57.2	57.2	90	54.3	0	0	---	0.00	30.100 
00:30	56.9	56.9	56.9	90	54.0	0	0	---	0.00	30.099 
00:35	56.6	56.6	56.6	91	54.0	0	0	---	0.00	30.099 
00:40	56.5	56.5	56.5	91	53.9	0	0	---	0.00	30.099 
00:45	56.2	56.2	56.2	92	53.9	0	0	---	0.00	30.100 
00:50	56.0	56.0	56.0	92	53.7	0	0	---	0.00	30.100 
00:55	55.7	55.7	55.7	92	53.4	0	0	---	0.00	30.100 
01:00	55.6	55.6	55.6	92	53.3	0	0	---	0.00	30.100 
01:05	55.3	55.3	55.3	92	53.0	0	0	---	0.00	30.100 
01:10	55.1	55.1	55.1	92	52.8	0	0	---	0.00	30.100 
01:15	54.8	54.8	54.8	92	52.5	0	0	---	0.00	30.100 
01:20	54.7	54.7	54.7	92	52.4	0	0	---	0.00	30.100 
01:25	54.5	54.5	54.5	93	52.5	0	0	---	0.00	30.100 
01:30	54.4	54.4	54.4	93	52.4	0	0	---	0.00	30.100 
01:35	54.2	54.2	54.2	93	52.2	0	0	---	0.00	30.100 
01:40	54.1	54.1	54.1	93	52.1	0	0	---	0.00	30.100 
01:45	53.9	53.9	53.9	94	52.2	0	0	---	0.00	30.101 
01:50	53.9	53.9	53.9	94	52.2	0	0	---	0.00	30.101 
01:55	53.9	53.9	53.9	94	52.2	0	0	---	0.00	30.101 
02:00	53.6	53.6	53.6	94	51.9	0	0	---	0.00	30.100 
02:05	53.6	53.6	53.6	94	51.9	0	0	---	0.00	30.100 
02:10	53.6	53.6	53.6	95	52.2	0	0	---	0.00	30.100 
02:15	53.5	53.5	53.5	95	52.1	0	0	---	0.00	30.102 
02:20	53.5	53.5	53.5	95	52.1	0	0	---	0.00	30.102 
02:25	53.3	53.3	53.3	95	51.9	0	0	---	0.00	30.102 
02:30	53.3	53.3	53.3	95	51.9	0	0	---	0.00	30.107 
02:35	53.2	53.2	53.2	95	51.8	0	0	---	0.00	30.107 
02:40	53.1	53.1	53.1	95	51.7	0	0	---	0.00	30.107 
02:45	52.9	52.9	52.9	95	51.5	0	0	---	0.00	30.100 
02:50	52.8	52.8	52.8	95	51.4	0	0	---	0.00	30.100 
02:55	52.6	52.6	52.6	95	51.2	0	0	---	0.00	30.100 
03:00	52.8	52.8	52.8	95	51.4	0	0	---	0.00	30.102 
03:05	52.6	52.6	52.6	95	51.2	0	0	---	0.00	30.102 
03:10	52.5	52.5	52.5	95	51.1	0	0	---	0.00	30.102 
03:15	52.3	52.3	52.3	95	50.9	0	0	---	0.00	30.102 
03:20	52.2	52.2	52.2	95	50.8	0	1	90	0.00	30.102 
03:25	52.2	52.2	52.2	96	51.1	0	0	---	0.00	30.102 
03:30	52.0	52.0	52.0	96	50.9	0	0	---	0.00	30.100 
03:35	52.0	52.0	52.0	96	50.9	0	0	---	0.00	30.100 
03:40	52.0	52.0	52.0	96	50.9	0	0	---	0.00	30.100 
03:45	52.0	52.0	52.0	96	50.9	0	0	---	0.00	30.099 
03:50	51.9	51.9	51.9	96	50.8	0	0	---	0.00	30.099 
03:55	51.7	51.7	51.7	96	50.6	0	0	---	0.00	30.099 
04:00	51.6	51.6	51.6	96	50.5	0	0	---	0.00	30.091 
04:05	51.4	51.4	51.4	96	50.3	0	0	---	0.00	30.091 
04:10	51.3	51.3	51.3	96	50.2	0	0	---	0.00	30.091 
04:15	51.1	51.1	51.1	96	50.0	0	0	---	0.00	30.098 
04:20	51.1	51.1	51.1	96	50.0	0	0	---	0.00	30.098 
04:25	51.3	51.3	51.3	96	50.2	0	0	---	0.00	30.098 
04:30	51.4	51.4	51.4	96	50.3	0	0	---	0.00	30.095 
04:35	52.0	52.0	52.0	97	51.2	0	1	90	0.00	30.095 
04:40	52.8	52.8	52.8	97	52.0	0	1	90	0.00	30.095 
04:45	53.1	53.1	53.1	97	52.3	0	1	90	0.00	30.093 
04:50	53.1	53.1	53.1	97	52.3	0	1	90	0.00	30.093 
04:55	53.2	53.2	53.2	97	52.4	0	1	90	0.00	30.093 
05:00	53.2	53.2	53.2	97	52.4	0	1	90	0.00	30.097 
05:05	53.1	53.1	53.1	97	52.3	0	2	90	0.00	30.097 
05:10	53.1	53.1	53.1	97	52.3	1	2	90	0.00	30.097 
05:15	53.1	53.1	53.1	97	52.3	1	2	90	0.00	30.097 
05:20	53.1	53.1	53.1	97	52.3	0	2	90	0.00	30.097 
05:25	53.2	53.2	53.2	97	52.4	1	2	90	0.00	30.097 
05:30	53.1	53.1	53.1	97	52.3	0	1	90	0.00	30.101 
05:35	52.9	52.9	52.9	97	52.1	1	2	90	0.00	30.101 
05:40	52.9	52.9	52.9	98	52.3	0	1	90	0.00	30.101 
05:45	52.9	52.9	52.9	98	52.3	0	1	90	0.00	30.100 
05:50	52.9	52.9	52.9	98	52.3	0	2	90	0.00	30.100 
05:55	52.8	52.8	52.8	98	52.2	1	3	90	0.00	30.100 
06:00	52.6	52.6	52.6	98	52.0	0	1	90	0.00	30.104 
06:05	52.5	52.5	52.5	98	52.0	0	1	90	0.00	30.104 
06:10	52.5	52.5	52.5	98	52.0	0	1	90	0.00	30.104 
06:15	52.5	52.5	52.5	98	52.0	0	1	90	0.00	30.113 
06:20	52.5	52.5	52.5	98	52.0	0	1	90	0.00	30.113 
06:25	52.5	52.5	52.5	98	52.0	0	1	90	0.00	30.113 
06:30	52.5	52.5	52.5	98	52.0	0	1	90	0.00	30.116 
06:35	52.5	52.5	52.5	98	52.0	0	1	90	0.00	30.116 
06:40	52.6	52.6	52.6	98	52.0	0	1	90	0.00	30.116 
06:45	52.6	52.6	52.6	98	52.0	0	0	---	0.00	30.123 
06:50	52.6	52.6	52.6	98	52.0	0	1	90	0.00	30.123 
06:55	52.5	52.5	52.5	98	52.0	0	1	90	0.00	30.123 
07:00	52.5	52.5	52.5	98	52.0	0	0	---	0.00	30.131 
07:05	52.5	52.5	52.5	98	52.0	0	1	90	0.00	30.131 
07:10	52.5	52.5	52.5	98	52.0	0	1	90	0.00	30.131 
07:15	52.5	52.5	52.5	98	52.0	1	2	90	0.00	30.130 
07:20	52.5	52.5	52.5	98	52.0	0	1	90	0.00	30.130 
07:25	52.6	52.6	52.6	98	52.0	0	1	90	0.00	30.130 
07:30	52.8	52.8	52.8	98	52.2	1	3	90	0.00	30.133 
07:35	52.9	52.9	52.9	98	52.3	1	2	90	0.00	30.133 
07:40	53.1	53.1	53.1	98	52.5	0	1	90	0.00	30.133 
07:45	53.1	53.1	53.1	98	52.5	0	1	90	0.00	30.133 
07:50	52.9	52.9	52.9	98	52.3	0	2	90	0.00	30.133 
07:55	52.8	52.8	52.8	98	52.2	0	2	90	0.00	30.133 
08:00	52.8	52.8	52.8	98	52.2	0	1	90	0.00	30.137 
08:05	52.8	52.8	52.8	98	52.2	0	1	90	0.00	30.137 
08:10	52.8	52.8	52.8	98	52.2	1	2	90	0.00	30.137 
08:15	52.8	52.8	52.8	98	52.2	1	3	90	0.00	30.144 
08:20	52.8	52.8	52.8	98	52.2	0	2	90	0.00	30.144 
08:25	52.9	52.9	52.9	98	52.3	0	1	90	0.00	30.144 
08:30	53.1	53.1	53.1	98	52.5	1	2	90	0.00	30.138 
08:35	53.2	53.2	53.2	98	52.6	1	2	90	0.00	30.138 
08:40	53.2	53.2	53.2	98	52.6	0	2	90	0.00	30.138 
08:45	53.3	53.3	53.3	99	53.0	0	2	90	0.00	30.145 
08:50	53.3	53.3	53.3	99	53.0	0	1	90	0.00	30.145 
08:55	53.6	53.6	53.6	99	53.3	0	0	---	0.00	30.145 
09:00	53.8	53.8	53.8	99	53.5	0	0	---	0.00	30.149 
09:05	54.1	54.1	54.1	99	53.8	0	1	90	0.00	30.149 
09:10	54.2	54.2	54.2	99	53.9	0	1	90	0.00	30.149 
09:15	54.5	54.5	54.5	99	54.2	0	1	90	0.00	30.151 
09:20	54.7	54.7	54.7	99	54.4	0	0	---	0.00	30.151 
09:25	55.1	55.1	55.1	99	54.8	0	1	90	0.00	30.151 
09:30	55.1	55.1	55.1	99	54.8	1	2	90	0.00	30.153 
09:35	55.1	55.1	55.1	99	54.8	1	3	90	0.00	30.153 
09:40	55.1	55.1	55.1	99	54.8	0	2	90	0.00	30.153 
09:45	55.6	55.6	55.6	99	55.3	0	1	90	0.00	30.157 
09:50	55.7	55.7	55.7	99	55.4	1	2	90	0.00	30.157 
09:55	55.7	55.7	55.7	99	55.4	1	2	90	0.00	30.157 
10:00	56.0	56.0	56.0	99	55.7	0	1	90	0.00	30.154 
10:05	56.3	56.3	56.3	99	56.0	1	2	90	0.00	30.154 
10:10	56.3	56.3	56.3	99	56.0	1	2	90	0.00	30.154 
10:15	56.6	56.6	56.6	99	56.3	0	2	90	0.00	30.154 
10:20	56.7	56.7	56.7	99	56.4	0	2	90	0.00	30.154 
10:25	57.0	57.0	57.0	99	56.7	0	2	90	0.00	30.154 
10:30	57.3	57.3	57.3	99	57.0	1	2	90	0.00	30.153 
10:35	57.5	57.5	57.5	99	57.2	1	3	90	0.00	30.153 
10:40	57.6	57.6	57.6	99	57.3	1	3	90	0.00	30.153 
10:45	57.8	57.8	57.8	99	57.5	0	2	90	0.00	30.152 
10:50	58.3	58.3	58.3	99	58.0	0	2	90	0.00	30.152 
10:55	58.3	58.3	58.3	99	58.0	1	2	90	0.00	30.152 
11:00	58.4	58.4	58.4	99	58.1	1	3	90	0.00	30.150 
11:05	58.7	58.7	58.7	99	58.4	1	3	90	0.00	30.150 
11:10	58.9	58.9	58.9	99	58.6	1	3	90	0.00	30.150 
11:15	59.2	59.2	59.2	99	58.9	1	3	90	0.00	30.145 
11:20	59.3	59.3	59.3	99	59.0	1	2	90	0.00	30.145 
11:25	59.6	59.6	59.6	99	59.3	1	3	90	0.00	30.145 
11:30	59.9	59.9	59.9	99	59.6	2	4	90	0.00	30.136 
11:35	60.2	60.2	60.2	99	59.9	2	4	90	0.00	30.136 
11:40	60.9	60.9	60.9	99	60.6	1	4	90	0.00	30.136 
11:45	61.5	61.5	61.5	99	61.2	1	2	68	0.00	30.125 
11:50	62.6	62.6	62.6	99	62.3	1	3	68	0.00	30.125 
11:55	63.1	63.1	63.1	98	62.5	1	3	112	0.00	30.125 
12:00	63.2	63.2	63.2	97	62.3	1	3	112	0.00	30.123 
12:05	63.2	63.2	63.2	94	61.4	2	5	90	0.00	30.123 
12:10	63.5	63.5	63.5	90	60.5	2	5	90	0.00	30.123 
12:15	64.0	64.0	64.0	87	60.0	2	4	90	0.00	30.114 
12:20	65.0	65.0	65.0	85	60.4	2	4	90	0.00	30.114 
12:25	66.1	66.1	66.1	81	60.1	1	4	90	0.00	30.114 
12:30	67.4	67.4	67.4	80	61.0	1	2	68	0.00	30.106 
12:35	68.3	68.3	68.3	77	60.8	2	5	90	0.00	30.106 
12:40	68.9	68.9	68.9	75	60.6	2	3	90	0.00	30.106 
12:45	69.4	69.4	69.4	76	61.5	2	4	112	0.00	30.100 
12:50	70.1	70.1	70.1	74	61.4	1	4	90	0.00	30.100 
12:55	70.6	70.6	70.6	71	60.7	1	3	112	0.00	30.100 
13:00	70.8	70.8	70.8	70	60.5	2	4	90	0.00	30.097 
13:05	70.9	70.9	70.9	69	60.2	2	5	112	0.00	30.097 
13:10	70.8	70.8	70.8	70	60.5	2	5	90	0.00	30.097 
13:15	71.1	71.1	71.1	69	60.4	1	4	90	0.00	30.093 
13:20	71.5	71.5	71.5	69	60.8	1	4	112	0.00	30.093 
13:25	71.6	71.6	71.6	69	60.9	1	4	112	0.00	30.093 
13:30	71.8	71.8	71.8	68	60.7	1	3	112	0.00	30.086 
13:35	72.1	72.1	72.1	67	60.5	1	3	112	0.00	30.086 
13:40	72.0	72.0	72.0	67	60.4	2	6	90	0.00	30.086 
13:45	71.8	71.8	71.8	67	60.2	1	4	112	0.00	30.082 
13:50	72.0	72.0	72.0	69	61.3	1	4	90	0.00	30.082 
13:55	72.7	72.7	72.7	68	61.5	1	6	90	0.00	30.082 
14:00	73.0	73.0	73.0	65	60.5	1	4	112	0.00	30.078 
14:05	73.0	73.0	73.0	67	61.4	1	2	112	0.00	30.078 
14:10	73.9	73.9	73.9	66	61.8	1	3	68	0.00	30.078 
14:15	74.4	74.4	74.4	61	60.1	2	4	90	0.00	30.070 
14:20	74.6	74.6	74.6	64	61.6	1	4	90	0.00	30.070 
14:25	74.4	74.4	74.4	63	61.0	2	6	90	0.00	30.070 
14:30	74.2	74.2	74.2	61	59.9	2	4	90	0.00	30.066 
14:35	74.0	74.0	74.0	62	60.1	1	4	90	0.00	30.066 
14:40	74.7	74.7	74.7	62	60.8	1	4	90	0.00	30.066 
14:45	75.3	75.3	77.5	60	60.4	1	3	90	0.00	30.051 
14:50	75.4	75.4	77.6	60	60.5	2	6	90	0.00	30.051 
14:55	75.3	75.3	77.6	58	59.5	2	4	112	0.00	30.051 
15:00	75.6	75.6	77.7	62	61.6	1	3	112	0.00	30.043 
15:05	75.8	75.8	77.9	57	59.5	2	5	112	0.00	30.043 
15:10	75.6	75.6	77.7	60	60.7	1	4	90	0.00	30.043 
15:15	75.8	75.8	77.9	56	59.0	2	5	112	0.00	30.040 
15:20	76.0	76.0	78.1	57	59.6	2	4	112	0.00	30.040 
15:25	75.8	75.8	77.9	57	59.5	2	4	90	0.00	30.040 
15:30	76.0	76.0	78.0	59	60.6	1	3	135	0.00	30.034 
15:35	76.3	76.3	78.3	55	58.9	2	5	90	0.00	30.034 
15:40	76.5	76.5	78.4	58	60.6	1	4	225	0.00	30.034 
15:45	76.7	76.7	78.5	56	59.8	1	3	270	0.00	30.022 
15:50	76.5	76.5	78.4	56	59.6	2	6	90	0.00	30.022 
15:55	76.1	76.1	78.1	56	59.2	2	4	90	0.00	30.022 
16:00	76.0	76.0	78.1	56	59.2	1	4	90	0.00	30.020 
16:05	76.0	76.0	78.1	53	57.6	1	5	90	0.00	30.020 
16:10	75.8	75.8	78.0	54	57.9	1	3	90	0.00	30.020 
16:15	75.8	75.8	78.0	54	57.9	1	4	90	0.00	30.019 
16:20	75.6	75.6	77.9	54	57.8	1	3	90	0.00	30.019 
16:25	75.4	75.4	77.7	55	58.1	1	2	90	0.00	30.019 
16:30	75.6	75.6	77.8	56	58.8	2	5	90	0.00	30.018 
16:35	76.0	76.0	78.1	56	59.2	1	4	135	0.00	30.018 
16:40	76.0	76.0	78.1	55	58.6	0	2	112	0.00	30.018 
16:45	76.1	76.1	78.1	54	58.2	1	5	90	0.00	30.018 
16:50	76.1	76.1	78.1	54	58.2	1	6	90	0.00	30.018 
16:55	76.3	76.3	78.3	55	58.9	1	6	112	0.00	30.018 
17:00	76.1	76.1	78.1	54	58.2	1	2	135	0.00	30.018 
17:05	76.1	76.1	78.1	54	58.2	2	4	112	0.00	30.018 
17:10	76.1	76.1	78.1	53	57.7	1	3	112	0.00	30.018 
17:15	75.8	75.8	78.0	54	57.9	1	4	90	0.00	30.016 
17:20	75.8	75.8	78.0	55	58.5	0	3	90	0.00	30.016 
17:25	75.6	75.6	77.8	55	58.3	1	2	112	0.00	30.016 
17:30	75.4	75.4	77.7	56	58.6	1	4	68	0.00	30.016 
17:35	75.4	75.4	77.7	55	58.1	2	4	90	0.00	30.016 
17:40	75.3	75.3	77.6	58	59.5	2	4	90	0.00	30.016 
17:45	75.1	75.1	77.5	57	58.8	1	4	68	0.00	30.010 
17:50	75.1	75.1	77.5	57	58.8	1	3	112	0.00	30.010 
17:55	75.1	75.1	77.5	58	59.3	1	2	112	0.00	30.010 
18:00	75.1	75.1	77.5	57	58.8	0	2	90	0.00	30.004 
18:05	75.1	75.1	77.5	58	59.3	0	2	90	0.00	30.004 
18:10	74.9	74.9	74.9	58	59.1	1	3	90	0.00	30.004 
18:15	74.9	74.9	74.9	58	59.1	0	1	90	0.00	30.003 
18:20	74.7	74.7	74.7	59	59.4	0	2	90	0.00	30.003 
18:25	74.7	74.7	74.7	59	59.4	0	2	112	0.00	30.003 
18:30	74.6	74.6	74.6	58	58.8	1	2	112	0.00	30.002 
18:35	74.6	74.6	74.6	60	59.8	1	2	112	0.00	30.002 
18:40	74.2	74.2	74.2	62	60.3	1	2	112	0.00	30.002 
18:45	73.9	73.9	73.9	62	60.0	0	1	112	0.00	29.990 
18:50	73.7	73.7	73.7	62	59.9	0	2	112	0.00	29.990 
18:55	73.3	73.3	73.3	63	59.9	0	3	112	0.00	29.990 
19:00	73.0	73.0	73.0	63	59.6	1	3	112	0.00	29.981 
19:05	72.8	72.8	72.8	64	59.9	0	2	112	0.00	29.981 
19:10	72.7	72.7	72.7	64	59.8	0	2	112	0.00	29.981 
19:15	72.3	72.3	72.3	64	59.4	0	1	112	0.00	29.983 
19:20	72.1	72.1	72.1	65	59.7	0	1	112	0.00	29.983 
19:25	72.1	72.1	72.1	65	59.7	0	0	---	0.00	29.983 
19:30	72.0	72.0	72.0	66	60.0	0	0	---	0.00	29.985 
19:35	71.8	71.8	71.8	67	60.2	0	0	---	0.00	29.985 
19:40	71.6	71.6	71.6	67	60.0	0	0	---	0.00	29.985 
19:45	71.5	71.5	71.5	68	60.4	0	1	112	0.00	29.979 
19:50	71.1	71.1	71.1	68	60.0	0	1	112	0.00	29.979 
19:55	70.9	70.9	70.9	69	60.2	0	1	112	0.00	29.979 
20:00	70.6	70.6	70.6	69	59.9	0	0	---	0.00	29.985 
20:05	70.1	70.1	70.1	69	59.4	0	0	---	0.00	29.985 
20:10	69.6	69.6	69.6	71	59.8	0	0	---	0.00	29.985 
20:15	68.8	68.8	68.8	71	59.0	0	0	---	0.00	29.987 
20:20	68.3	68.3	68.3	73	59.3	0	0	---	0.00	29.987 
20:25	67.8	67.8	67.8	73	58.8	0	0	---	0.00	29.987 
20:30	67.3	67.3	67.3	74	58.7	0	0	---	0.00	29.991 
20:35	66.9	66.9	66.9	75	58.7	0	0	---	0.00	29.991 
20:40	66.6	66.6	66.6	76	58.8	0	0	---	0.00	29.991 
20:45	66.3	66.3	66.3	77	58.9	0	0	---	0.00	29.992 
20:50	66.0	66.0	66.0	78	58.9	0	1	112	0.00	29.992 
20:55	65.6	65.6	65.6	78	58.5	0	0	---	0.00	29.992 
21:00	65.5	65.5	65.5	79	58.8	0	0	---	0.00	29.989 
21:05	65.3	65.3	65.3	79	58.6	0	0	---	0.00	29.989 
21:10	65.2	65.2	65.2	79	58.5	0	0	---	0.00	29.989 
21:15	65.2	65.2	65.2	79	58.5	0	0	---	0.00	29.992 
21:20	65.0	65.0	65.0	79	58.3	0	0	---	0.00	29.992 
21:25	64.8	64.8	64.8	79	58.1	0	0	---	0.00	29.992 
21:30	64.7	64.7	64.7	80	58.4	0	1	112	0.00	29.993 
21:35	64.5	64.5	64.5	80	58.2	0	1	112	0.00	29.993 
21:40	64.7	64.7	64.7	79	58.0	0	1	112	0.00	29.993 
21:45	64.7	64.7	64.7	79	58.0	0	1	112	0.00	29.994 
21:50	64.7	64.7	64.7	78	57.7	0	2	112	0.00	29.994 
21:55	64.8	64.8	64.8	77	57.4	0	2	90	0.00	29.994 
22:00	65.2	65.2	65.2	77	57.8	0	2	90	0.00	29.995 
22:05	65.3	65.3	65.3	76	57.5	0	2	135	0.00	29.995 
22:10	65.5	65.5	65.5	76	57.7	1	2	135	0.00	29.995 
22:15	65.5	65.5	65.5	76	57.7	0	1	135	0.00	29.990 
22:20	65.5	65.5	65.5	76	57.7	0	1	135	0.00	29.990 
22:25	65.3	65.3	65.3	76	57.5	0	2	135	0.00	29.990 
22:30	65.3	65.3	65.3	76	57.5	1	3	90	0.00	29.982 
22:35	65.3	65.3	65.3	76	57.5	1	3	90	0.00	29.982 
22:40	65.2	65.2	65.2	77	57.8	0	2	90	0.00	29.982 
22:45	65.2	65.2	65.2	77	57.8	0	2	90	0.00	29.979 
22:50	65.0	65.0	65.0	77	57.6	1	3	112	0.00	29.979 
22:55	65.0	65.0	65.0	77	57.6	1	4	112	0.00	29.979 
23:00	65.0	65.0	65.0	77	57.6	0	1	112	0.00	29.980 
23:05	64.8	64.8	64.8	77	57.4	0	2	112	0.00	29.980 
23:10	64.8	64.8	64.8	77	57.4	0	2	112	0.00	29.980 
23:15	64.7	64.7	64.7	77	57.3	0	1	112	0.00	29.973 
23:20	64.7	64.7	64.7	77	57.3	0	2	112	0.00	29.973 
23:25	64.5	64.5	64.5	78	57.5	0	2	112	0.00	29.973 
23:30	64.3	64.3	64.3	78	57.3	0	2	112	0.00	29.971 
23:35	64.2	64.2	64.2	78	57.2	0	2	112	0.00	29.971 
23:40	63.9	63.9	63.9	79	57.3	0	1	112	0.00	29.971 
23:45	63.4	63.4	63.4	80	57.1	0	1	112	0.00	29.959 
23:50	63.2	63.2	63.2	81	57.3	0	1	112	0.00	29.959 
23:55	63.1	63.1	63.1	81	57.2	0	3	112	0.00	29.959 

CoCoRaHS
IN-AL-39
A2 Web Hosting
Creative Commons License
GoDaddy
Look for:

loaded 2017-10-18 07:38:26 • last modified 2010-11-18 10:43:29
Privacy PolicyDisclaimer
• wx.awcolley.com is powered by PmWiki v.2002016 •
• all content (unless otherwise noted) © 2017 A W Colley